sensor_id;sensor_type;location;lat;lon;timestamp;temperature;humidity
7684;DHT22;3884;48.616;12.872;2023-06-14T00:00:41;13.40;99.90
7684;DHT22;3884;48.616;12.872;2023-06-14T00:03:10;13.20;99.90
7684;DHT22;3884;48.616;12.872;2023-06-14T00:05:37;12.80;1.00
7684;DHT22;3884;48.616;12.872;2023-06-14T00:08:09;12.80;1.00
7684;DHT22;3884;48.616;12.872;2023-06-14T00:10:36;13.00;99.90
7684;DHT22;3884;48.616;12.872;2023-06-14T00:13:04;13.10;99.90
7684;DHT22;3884;48.616;12.872;2023-06-14T00:15:33;13.20;99.90
7684;DHT22;3884;48.616;12.872;2023-06-14T00:18:00;13.00;99.90
7684;DHT22;3884;48.616;12.872;2023-06-14T00:20:29;12.90;1.00
7684;DHT22;3884;48.616;12.872;2023-06-14T00:22:56;12.70;1.00
7684;DHT22;3884;48.616;12.872;2023-06-14T00:25:23;12.60;1.00
7684;DHT22;3884;48.616;12.872;2023-06-14T00:27:50;12.50;1.00
7684;DHT22;3884;48.616;12.872;2023-06-14T00:30:19;12.50;1.00
7684;DHT22;3884;48.616;12.872;2023-06-14T00:32:47;12.50;1.00
7684;DHT22;3884;48.616;12.872;2023-06-14T00:35:14;12.50;1.00
7684;DHT22;3884;48.616;12.872;2023-06-14T00:37:42;12.50;1.00
7684;DHT22;3884;48.616;12.872;2023-06-14T00:40:09;12.50;1.00
7684;DHT22;3884;48.616;12.872;2023-06-14T00:42:37;12.50;1.00
7684;DHT22;3884;48.616;12.872;2023-06-14T00:45:05;12.30;1.00
7684;DHT22;3884;48.616;12.872;2023-06-14T00:47:32;12.40;1.00
7684;DHT22;3884;48.616;12.872;2023-06-14T00:49:59;12.40;1.00
7684;DHT22;3884;48.616;12.872;2023-06-14T00:52:26;12.40;1.00
7684;DHT22;3884;48.616;12.872;2023-06-14T00:54:56;12.40;1.00
7684;DHT22;3884;48.616;12.872;2023-06-14T00:57:23;12.30;1.00
7684;DHT22;3884;48.616;12.872;2023-06-14T00:59:50;12.30;1.00
7684;DHT22;3884;48.616;12.872;2023-06-14T01:02:17;12.20;1.00
7684;DHT22;3884;48.616;12.872;2023-06-14T01:04:46;12.20;1.00
7684;DHT22;3884;48.616;12.872;2023-06-14T01:07:23;12.10;1.00
7684;DHT22;3884;48.616;12.872;2023-06-14T01:10:06;12.00;1.00
7684;DHT22;3884;48.616;12.872;2023-06-14T01:12:39;11.70;11.60
7684;DHT22;3884;48.616;12.872;2023-06-14T01:15:07;11.60;75.00
7684;DHT22;3884;48.616;12.872;2023-06-14T01:17:35;11.60;13.40
7684;DHT22;3884;48.616;12.872;2023-06-14T01:20:10;11.50;1.00
7684;DHT22;3884;48.616;12.872;2023-06-14T01:22:49;11.50;1.00
7684;DHT22;3884;48.616;12.872;2023-06-14T01:25:16;11.50;1.00
7684;DHT22;3884;48.616;12.872;2023-06-14T01:27:48;11.40;99.90
7684;DHT22;3884;48.616;12.872;2023-06-14T01:30:16;11.30;99.90
7684;DHT22;3884;48.616;12.872;2023-06-14T01:32:45;11.20;99.90
7684;DHT22;3884;48.616;12.872;2023-06-14T01:35:13;11.20;99.90
7684;DHT22;3884;48.616;12.872;2023-06-14T01:37:40;11.20;99.90
7684;DHT22;3884;48.616;12.872;2023-06-14T01:40:10;11.20;99.90
7684;DHT22;3884;48.616;12.872;2023-06-14T01:42:39;11.30;99.90
7684;DHT22;3884;48.616;12.872;2023-06-14T01:45:09;11.40;99.90
7684;DHT22;3884;48.616;12.872;2023-06-14T01:47:36;11.50;99.90
7684;DHT22;3884;48.616;12.872;2023-06-14T01:50:04;11.60;99.90
7684;DHT22;3884;48.616;12.872;2023-06-14T01:52:31;11.60;99.90
7684;DHT22;3884;48.616;12.872;2023-06-14T01:54:58;11.50;99.90
7684;DHT22;3884;48.616;12.872;2023-06-14T01:57:29;11.40;99.90
7684;DHT22;3884;48.616;12.872;2023-06-14T01:59:56;11.20;99.90
7684;DHT22;3884;48.616;12.872;2023-06-14T02:02:24;11.00;99.90
7684;DHT22;3884;48.616;12.872;2023-06-14T02:04:52;11.00;99.90
7684;DHT22;3884;48.616;12.872;2023-06-14T02:07:22;11.00;99.90
7684;DHT22;3884;48.616;12.872;2023-06-14T02:09:51;11.00;99.90
7684;DHT22;3884;48.616;12.872;2023-06-14T02:12:18;11.00;99.90
7684;DHT22;3884;48.616;12.872;2023-06-14T02:14:46;10.90;99.90
7684;DHT22;3884;48.616;12.872;2023-06-14T02:17:14;10.90;99.90
7684;DHT22;3884;48.616;12.872;2023-06-14T02:19:41;10.90;99.90
7684;DHT22;3884;48.616;12.872;2023-06-14T02:22:08;10.80;1.00
7684;DHT22;3884;48.616;12.872;2023-06-14T02:24:35;10.80;1.00
7684;DHT22;3884;48.616;12.872;2023-06-14T02:27:02;10.80;99.90
7684;DHT22;3884;48.616;12.872;2023-06-14T02:29:29;10.60;1.00
7684;DHT22;3884;48.616;12.872;2023-06-14T02:31:57;10.60;1.00
7684;DHT22;3884;48.616;12.872;2023-06-14T02:34:24;10.60;1.00
7684;DHT22;3884;48.616;12.872;2023-06-14T02:36:51;10.60;99.90
7684;DHT22;3884;48.616;12.872;2023-06-14T02:39:19;10.70;99.90
7684;DHT22;3884;48.616;12.872;2023-06-14T02:41:48;10.70;1.00
7684;DHT22;3884;48.616;12.872;2023-06-14T02:44:17;10.80;1.00
7684;DHT22;3884;48.616;12.872;2023-06-14T02:46:44;10.80;1.00
7684;DHT22;3884;48.616;12.872;2023-06-14T02:49:13;10.80;99.90
7684;DHT22;3884;48.616;12.872;2023-06-14T02:51:40;10.60;1.00
7684;DHT22;3884;48.616;12.872;2023-06-14T02:54:06;10.00;72.40
7684;DHT22;3884;48.616;12.872;2023-06-14T02:56:33;9.80;1.00
7684;DHT22;3884;48.616;12.872;2023-06-14T02:59:01;10.00;1.00
7684;DHT22;3884;48.616;12.872;2023-06-14T03:01:28;10.20;99.90
7684;DHT22;3884;48.616;12.872;2023-06-14T03:04:03;10.40;1.00
7684;DHT22;3884;48.616;12.872;2023-06-14T03:06:33;10.40;1.00
7684;DHT22;3884;48.616;12.872;2023-06-14T03:09:01;10.30;1.00
7684;DHT22;3884;48.616;12.872;2023-06-14T03:11:31;10.20;1.00
7684;DHT22;3884;48.616;12.872;2023-06-14T03:14:00;10.20;20.20
7684;DHT22;3884;48.616;12.872;2023-06-14T03:16:29;10.20;10.10
7684;DHT22;3884;48.616;12.872;2023-06-14T03:18:59;10.20;1.00
7684;DHT22;3884;48.616;12.872;2023-06-14T03:21:29;10.10;90.30
7684;DHT22;3884;48.616;12.872;2023-06-14T03:24:00;10.10;86.70
7684;DHT22;3884;48.616;12.872;2023-06-14T03:26:27;10.10;99.90
7684;DHT22;3884;48.616;12.872;2023-06-14T03:28:58;10.20;18.00
7684;DHT22;3884;48.616;12.872;2023-06-14T03:31:25;10.20;1.00
7684;DHT22;3884;48.616;12.872;2023-06-14T03:33:53;10.20;1.00
7684;DHT22;3884;48.616;12.872;2023-06-14T03:36:20;10.30;57.60
7684;DHT22;3884;48.616;12.872;2023-06-14T03:38:48;10.30;1.00
7684;DHT22;3884;48.616;12.872;2023-06-14T03:41:20;10.20;97.70
7684;DHT22;3884;48.616;12.872;2023-06-14T03:43:50;9.90;99.90
7684;DHT22;3884;48.616;12.872;2023-06-14T03:46:17;9.90;1.00
7684;DHT22;3884;48.616;12.872;2023-06-14T03:48:44;9.90;1.00
7684;DHT22;3884;48.616;12.872;2023-06-14T03:51:11;9.90;1.00
7684;DHT22;3884;48.616;12.872;2023-06-14T03:53:39;10.10;1.00
7684;DHT22;3884;48.616;12.872;2023-06-14T03:56:06;10.30;99.90
7684;DHT22;3884;48.616;12.872;2023-06-14T03:58:40;10.50;96.10
7684;DHT22;3884;48.616;12.872;2023-06-14T04:01:07;10.50;77.00
7684;DHT22;3884;48.616;12.872;2023-06-14T04:03:36;10.50;93.40
7684;DHT22;3884;48.616;12.872;2023-06-14T04:06:04;10.60;99.90
7684;DHT22;3884;48.616;12.872;2023-06-14T04:08:31;10.50;99.90
7684;DHT22;3884;48.616;12.872;2023-06-14T04:10:58;10.50;99.90
7684;DHT22;3884;48.616;12.872;2023-06-14T04:13:25;10.50;99.90
7684;DHT22;3884;48.616;12.872;2023-06-14T04:15:53;10.50;99.90
7684;DHT22;3884;48.616;12.872;2023-06-14T04:18:26;10.60;99.90
7684;DHT22;3884;48.616;12.872;2023-06-14T04:21:14;10.80;99.90
7684;DHT22;3884;48.616;12.872;2023-06-14T04:23:41;10.90;99.90
7684;DHT22;3884;48.616;12.872;2023-06-14T04:26:09;11.00;1.00
7684;DHT22;3884;48.616;12.872;2023-06-14T04:28:39;11.10;1.00
7684;DHT22;3884;48.616;12.872;2023-06-14T04:31:08;10.90;99.90
7684;DHT22;3884;48.616;12.872;2023-06-14T04:33:35;10.80;99.90
7684;DHT22;3884;48.616;12.872;2023-06-14T04:36:09;10.80;99.90
7684;DHT22;3884;48.616;12.872;2023-06-14T04:38:38;10.90;1.00
7684;DHT22;3884;48.616;12.872;2023-06-14T04:41:05;11.10;99.90
7684;DHT22;3884;48.616;12.872;2023-06-14T04:43:32;11.30;1.00
7684;DHT22;3884;48.616;12.872;2023-06-14T04:46:05;11.50;99.90
7684;DHT22;3884;48.616;12.872;2023-06-14T04:48:37;11.70;95.80
7684;DHT22;3884;48.616;12.872;2023-06-14T04:51:05;11.80;38.20
7684;DHT22;3884;48.616;12.872;2023-06-14T04:53:32;11.90;1.40
7684;DHT22;3884;48.616;12.872;2023-06-14T04:56:00;12.00;1.00
7684;DHT22;3884;48.616;12.872;2023-06-14T04:58:29;12.00;1.00
7684;DHT22;3884;48.616;12.872;2023-06-14T05:00:57;12.00;1.00
7684;DHT22;3884;48.616;12.872;2023-06-14T05:03:25;12.00;99.90
7684;DHT22;3884;48.616;12.872;2023-06-14T05:05:53;12.10;1.00
7684;DHT22;3884;48.616;12.872;2023-06-14T05:08:20;12.20;99.90
7684;DHT22;3884;48.616;12.872;2023-06-14T05:10:49;12.30;99.90
7684;DHT22;3884;48.616;12.872;2023-06-14T05:13:16;12.50;1.00
7684;DHT22;3884;48.616;12.872;2023-06-14T05:15:44;12.70;1.00
7684;DHT22;3884;48.616;12.872;2023-06-14T05:18:12;12.80;1.00
7684;DHT22;3884;48.616;12.872;2023-06-14T05:20:39;13.00;1.00
7684;DHT22;3884;48.616;12.872;2023-06-14T05:23:33;13.10;1.00
7684;DHT22;3884;48.616;12.872;2023-06-14T05:26:00;13.40;99.90
7684;DHT22;3884;48.616;12.872;2023-06-14T05:28:28;13.60;99.90
7684;DHT22;3884;48.616;12.872;2023-06-14T05:30:56;13.70;99.90
7684;DHT22;3884;48.616;12.872;2023-06-14T05:33:23;14.00;99.90
7684;DHT22;3884;48.616;12.872;2023-06-14T05:35:50;14.10;99.90
7684;DHT22;3884;48.616;12.872;2023-06-14T05:38:17;14.30;25.50
7684;DHT22;3884;48.616;12.872;2023-06-14T05:40:45;14.40;11.00
7684;DHT22;3884;48.616;12.872;2023-06-14T05:43:12;14.50;1.00
7684;DHT22;3884;48.616;12.872;2023-06-14T05:45:39;14.60;1.00
7684;DHT22;3884;48.616;12.872;2023-06-14T05:48:05;14.70;1.00
7684;DHT22;3884;48.616;12.872;2023-06-14T05:50:32;14.80;1.00
7684;DHT22;3884;48.616;12.872;2023-06-14T05:52:59;14.90;1.00
7684;DHT22;3884;48.616;12.872;2023-06-14T05:55:26;15.00;1.00
7684;DHT22;3884;48.616;12.872;2023-06-14T05:57:54;15.20;1.00
7684;DHT22;3884;48.616;12.872;2023-06-14T06:00:21;15.30;1.00
7684;DHT22;3884;48.616;12.872;2023-06-14T06:02:47;15.40;1.00
7684;DHT22;3884;48.616;12.872;2023-06-14T06:05:14;15.50;1.00
7684;DHT22;3884;48.616;12.872;2023-06-14T06:07:42;15.60;1.00
7684;DHT22;3884;48.616;12.872;2023-06-14T06:10:10;15.70;1.00
7684;DHT22;3884;48.616;12.872;2023-06-14T06:12:37;15.80;1.00
7684;DHT22;3884;48.616;12.872;2023-06-14T06:15:06;15.80;1.00
7684;DHT22;3884;48.616;12.872;2023-06-14T06:17:33;15.90;1.00
7684;DHT22;3884;48.616;12.872;2023-06-14T06:20:00;16.00;1.00
7684;DHT22;3884;48.616;12.872;2023-06-14T06:22:27;16.10;1.00
7684;DHT22;3884;48.616;12.872;2023-06-14T06:24:54;16.30;1.00
7684;DHT22;3884;48.616;12.872;2023-06-14T06:27:21;16.40;1.00
7684;DHT22;3884;48.616;12.872;2023-06-14T06:29:48;16.60;1.00
7684;DHT22;3884;48.616;12.872;2023-06-14T06:32:16;16.70;1.00
7684;DHT22;3884;48.616;12.872;2023-06-14T06:34:43;16.80;1.00
7684;DHT22;3884;48.616;12.872;2023-06-14T06:37:10;16.80;1.00
7684;DHT22;3884;48.616;12.872;2023-06-14T06:39:37;16.90;1.00
7684;DHT22;3884;48.616;12.872;2023-06-14T06:42:04;16.90;99.90
7684;DHT22;3884;48.616;12.872;2023-06-14T06:44:36;17.00;99.90
7684;DHT22;3884;48.616;12.872;2023-06-14T06:47:03;17.10;1.00
7684;DHT22;3884;48.616;12.872;2023-06-14T06:49:31;17.10;1.00
7684;DHT22;3884;48.616;12.872;2023-06-14T06:51:59;17.40;99.90
7684;DHT22;3884;48.616;12.872;2023-06-14T06:54:26;17.60;99.90
7684;DHT22;3884;48.616;12.872;2023-06-14T06:56:53;17.70;99.90
7684;DHT22;3884;48.616;12.872;2023-06-14T06:59:21;17.80;99.90
7684;DHT22;3884;48.616;12.872;2023-06-14T07:01:48;17.70;99.90
7684;DHT22;3884;48.616;12.872;2023-06-14T07:04:16;17.80;99.90
7684;DHT22;3884;48.616;12.872;2023-06-14T07:06:47;18.00;99.90
7684;DHT22;3884;48.616;12.872;2023-06-14T07:09:14;18.00;99.90
7684;DHT22;3884;48.616;12.872;2023-06-14T07:11:42;18.30;99.90
7684;DHT22;3884;48.616;12.872;2023-06-14T07:14:09;18.50;99.90
7684;DHT22;3884;48.616;12.872;2023-06-14T07:16:37;18.70;99.90
7684;DHT22;3884;48.616;12.872;2023-06-14T07:19:04;18.70;99.90
7684;DHT22;3884;48.616;12.872;2023-06-14T07:21:31;18.80;99.90
7684;DHT22;3884;48.616;12.872;2023-06-14T07:23:59;18.90;99.90
7684;DHT22;3884;48.616;12.872;2023-06-14T07:26:26;18.80;99.90
7684;DHT22;3884;48.616;12.872;2023-06-14T07:28:52;18.90;99.90
7684;DHT22;3884;48.616;12.872;2023-06-14T07:31:19;19.00;99.90
7684;DHT22;3884;48.616;12.872;2023-06-14T07:33:46;19.20;99.90
7684;DHT22;3884;48.616;12.872;2023-06-14T07:36:13;19.20;99.90
7684;DHT22;3884;48.616;12.872;2023-06-14T07:38:40;19.30;99.90
7684;DHT22;3884;48.616;12.872;2023-06-14T07:41:09;19.30;99.90
7684;DHT22;3884;48.616;12.872;2023-06-14T07:43:36;19.40;99.90
7684;DHT22;3884;48.616;12.872;2023-06-14T07:46:02;19.30;99.90
7684;DHT22;3884;48.616;12.872;2023-06-14T07:48:29;19.30;99.90
7684;DHT22;3884;48.616;12.872;2023-06-14T07:50:56;19.20;99.90
7684;DHT22;3884;48.616;12.872;2023-06-14T07:53:23;19.60;99.90
7684;DHT22;3884;48.616;12.872;2023-06-14T07:55:50;19.80;99.90
7684;DHT22;3884;48.616;12.872;2023-06-14T07:58:18;20.10;99.90
7684;DHT22;3884;48.616;12.872;2023-06-14T08:00:45;20.30;99.90
7684;DHT22;3884;48.616;12.872;2023-06-14T08:03:14;20.30;99.90
7684;DHT22;3884;48.616;12.872;2023-06-14T08:05:41;20.50;99.90
7684;DHT22;3884;48.616;12.872;2023-06-14T08:08:07;20.40;99.90
7684;DHT22;3884;48.616;12.872;2023-06-14T08:10:34;20.40;99.90
7684;DHT22;3884;48.616;12.872;2023-06-14T08:13:01;20.70;99.90
7684;DHT22;3884;48.616;12.872;2023-06-14T08:15:29;20.40;99.90
7684;DHT22;3884;48.616;12.872;2023-06-14T08:17:56;20.60;99.90
7684;DHT22;3884;48.616;12.872;2023-06-14T08:20:25;20.30;99.90
7684;DHT22;3884;48.616;12.872;2023-06-14T08:22:51;20.50;99.90
7684;DHT22;3884;48.616;12.872;2023-06-14T08:25:20;20.60;99.90
7684;DHT22;3884;48.616;12.872;2023-06-14T08:27:47;20.80;99.90
7684;DHT22;3884;48.616;12.872;2023-06-14T08:30:15;20.70;99.90
7684;DHT22;3884;48.616;12.872;2023-06-14T08:32:44;21.00;99.90
7684;DHT22;3884;48.616;12.872;2023-06-14T08:35:11;21.30;99.90
7684;DHT22;3884;48.616;12.872;2023-06-14T08:37:41;21.10;99.90
7684;DHT22;3884;48.616;12.872;2023-06-14T08:40:19;21.30;99.90
7684;DHT22;3884;48.616;12.872;2023-06-14T08:42:50;21.50;99.90
7684;DHT22;3884;48.616;12.872;2023-06-14T08:45:18;21.80;99.90
7684;DHT22;3884;48.616;12.872;2023-06-14T08:47:47;21.40;99.90
7684;DHT22;3884;48.616;12.872;2023-06-14T08:50:20;21.80;99.90
7684;DHT22;3884;48.616;12.872;2023-06-14T08:52:48;21.70;99.90
7684;DHT22;3884;48.616;12.872;2023-06-14T08:55:18;21.90;99.90
7684;DHT22;3884;48.616;12.872;2023-06-14T08:57:46;22.40;99.90
7684;DHT22;3884;48.616;12.872;2023-06-14T09:00:15;22.60;99.90
7684;DHT22;3884;48.616;12.872;2023-06-14T09:02:42;22.80;99.90
7684;DHT22;3884;48.616;12.872;2023-06-14T09:05:11;22.50;99.90
7684;DHT22;3884;48.616;12.872;2023-06-14T09:07:39;22.30;99.90
7684;DHT22;3884;48.616;12.872;2023-06-14T09:10:08;22.30;99.90
7684;DHT22;3884;48.616;12.872;2023-06-14T09:12:35;22.60;99.90
7684;DHT22;3884;48.616;12.872;2023-06-14T09:15:02;22.00;99.90
7684;DHT22;3884;48.616;12.872;2023-06-14T09:17:33;22.20;99.90
7684;DHT22;3884;48.616;12.872;2023-06-14T09:20:01;22.50;99.90
7684;DHT22;3884;48.616;12.872;2023-06-14T09:22:33;22.90;99.90
7684;DHT22;3884;48.616;12.872;2023-06-14T09:25:02;23.20;99.90
7684;DHT22;3884;48.616;12.872;2023-06-14T09:27:31;22.70;99.90
7684;DHT22;3884;48.616;12.872;2023-06-14T09:29:58;22.30;99.90
7684;DHT22;3884;48.616;12.872;2023-06-14T09:32:26;22.10;99.90
7684;DHT22;3884;48.616;12.872;2023-06-14T09:34:52;22.30;99.90
7684;DHT22;3884;48.616;12.872;2023-06-14T09:37:28;22.70;99.90
7684;DHT22;3884;48.616;12.872;2023-06-14T09:39:58;22.80;99.90
7684;DHT22;3884;48.616;12.872;2023-06-14T09:42:25;22.60;99.90
7684;DHT22;3884;48.616;12.872;2023-06-14T09:44:56;23.20;99.90
7684;DHT22;3884;48.616;12.872;2023-06-14T09:47:24;22.60;99.90
7684;DHT22;3884;48.616;12.872;2023-06-14T09:49:55;22.40;99.90
7684;DHT22;3884;48.616;12.872;2023-06-14T09:52:22;22.60;99.90
7684;DHT22;3884;48.616;12.872;2023-06-14T09:54:49;22.60;99.90
7684;DHT22;3884;48.616;12.872;2023-06-14T09:57:23;22.60;99.90
7684;DHT22;3884;48.616;12.872;2023-06-14T09:59:54;22.50;99.90
7684;DHT22;3884;48.616;12.872;2023-06-14T10:02:25;22.80;99.90
7684;DHT22;3884;48.616;12.872;2023-06-14T10:04:57;23.40;99.90
7684;DHT22;3884;48.616;12.872;2023-06-14T10:07:27;23.40;99.90
7684;DHT22;3884;48.616;12.872;2023-06-14T10:09:57;22.90;99.90
7684;DHT22;3884;48.616;12.872;2023-06-14T10:12:26;23.20;99.90
7684;DHT22;3884;48.616;12.872;2023-06-14T10:14:53;23.80;99.90
7684;DHT22;3884;48.616;12.872;2023-06-14T10:17:27;23.50;99.90
7684;DHT22;3884;48.616;12.872;2023-06-14T10:20:10;23.50;99.90
7684;DHT22;3884;48.616;12.872;2023-06-14T10:22:44;23.70;99.90
7684;DHT22;3884;48.616;12.872;2023-06-14T10:25:28;24.10;99.90
7684;DHT22;3884;48.616;12.872;2023-06-14T10:28:21;24.30;94.40
7684;DHT22;3884;48.616;12.872;2023-06-14T10:31:18;24.00;99.90
7684;DHT22;3884;48.616;12.872;2023-06-14T10:33:56;23.20;99.90
7684;DHT22;3884;48.616;12.872;2023-06-14T10:39:39;23.30;99.50
7684;DHT22;3884;48.616;12.872;2023-06-14T10:42:29;23.30;93.50
7684;DHT22;3884;48.616;12.872;2023-06-14T10:55:32;22.30;95.10
7684;DHT22;3884;48.616;12.872;2023-06-14T10:58:16;22.20;99.90
7684;DHT22;3884;48.616;12.872;2023-06-14T11:00:58;22.50;99.90
7684;DHT22;3884;48.616;12.872;2023-06-14T11:03:50;22.60;83.50
7684;DHT22;3884;48.616;12.872;2023-06-14T11:06:52;22.50;96.60
7684;DHT22;3884;48.616;12.872;2023-06-14T11:10:10;22.50;83.80
7684;DHT22;3884;48.616;12.872;2023-06-14T11:12:47;22.80;87.50
7684;DHT22;3884;48.616;12.872;2023-06-14T11:15:15;22.70;87.20
7684;DHT22;3884;48.616;12.872;2023-06-14T11:17:50;22.70;99.60
7684;DHT22;3884;48.616;12.872;2023-06-14T11:20:23;22.80;86.90
7684;DHT22;3884;48.616;12.872;2023-06-14T11:22:51;23.10;90.40
7684;DHT22;3884;48.616;12.872;2023-06-14T11:25:19;22.90;99.90
7684;DHT22;3884;48.616;12.872;2023-06-14T11:27:49;23.00;99.60
7684;DHT22;3884;48.616;12.872;2023-06-14T11:30:16;23.20;91.90
7684;DHT22;3884;48.616;12.872;2023-06-14T11:32:46;23.30;93.90
7684;DHT22;3884;48.616;12.872;2023-06-14T11:35:13;23.30;99.90
7684;DHT22;3884;48.616;12.872;2023-06-14T11:37:40;23.20;99.90
7684;DHT22;3884;48.616;12.872;2023-06-14T11:40:08;23.40;89.00
7684;DHT22;3884;48.616;12.872;2023-06-14T11:42:36;23.20;95.00
7684;DHT22;3884;48.616;12.872;2023-06-14T11:45:10;23.60;99.90
7684;DHT22;3884;48.616;12.872;2023-06-14T11:47:38;23.60;96.80
7684;DHT22;3884;48.616;12.872;2023-06-14T11:50:09;23.50;99.90
7684;DHT22;3884;48.616;12.872;2023-06-14T11:52:38;22.70;90.60
7684;DHT22;3884;48.616;12.872;2023-06-14T11:55:07;22.60;93.80
7684;DHT22;3884;48.616;12.872;2023-06-14T11:57:34;23.00;97.00
7684;DHT22;3884;48.616;12.872;2023-06-14T12:00:03;23.00;96.50
7684;DHT22;3884;48.616;12.872;2023-06-14T12:02:56;23.10;90.00
7684;DHT22;3884;48.616;12.872;2023-06-14T12:05:24;23.40;93.00
7684;DHT22;3884;48.616;12.872;2023-06-14T12:07:58;23.50;94.20
7684;DHT22;3884;48.616;12.872;2023-06-14T12:10:26;23.90;99.90
7684;DHT22;3884;48.616;12.872;2023-06-14T12:12:57;23.70;97.60
7684;DHT22;3884;48.616;12.872;2023-06-14T12:15:24;24.10;98.50
7684;DHT22;3884;48.616;12.872;2023-06-14T12:17:51;23.30;97.70
7684;DHT22;3884;48.616;12.872;2023-06-14T12:20:22;23.10;94.80
7684;DHT22;3884;48.616;12.872;2023-06-14T12:22:54;23.10;99.50
7684;DHT22;3884;48.616;12.872;2023-06-14T12:25:27;22.70;97.90
7684;DHT22;3884;48.616;12.872;2023-06-14T12:27:58;22.90;93.10
7684;DHT22;3884;48.616;12.872;2023-06-14T12:30:27;22.90;95.90
7684;DHT22;3884;48.616;12.872;2023-06-14T12:32:54;22.70;96.60
7684;DHT22;3884;48.616;12.872;2023-06-14T12:35:23;23.20;93.60
7684;DHT22;3884;48.616;12.872;2023-06-14T12:37:50;23.50;99.90
7684;DHT22;3884;48.616;12.872;2023-06-14T12:40:17;23.30;99.90
7684;DHT22;3884;48.616;12.872;2023-06-14T12:42:45;23.60;91.30
7684;DHT22;3884;48.616;12.872;2023-06-14T12:45:13;23.80;92.10
7684;DHT22;3884;48.616;12.872;2023-06-14T12:47:40;24.10;83.30
7684;DHT22;3884;48.616;12.872;2023-06-14T12:50:08;24.20;95.20
7684;DHT22;3884;48.616;12.872;2023-06-14T12:52:36;24.20;93.20
7684;DHT22;3884;48.616;12.872;2023-06-14T12:55:04;23.80;69.00
7684;DHT22;3884;48.616;12.872;2023-06-14T12:57:32;24.30;73.70
7684;DHT22;3884;48.616;12.872;2023-06-14T13:00:02;24.30;99.90
7684;DHT22;3884;48.616;12.872;2023-06-14T13:02:30;24.50;89.00
7684;DHT22;3884;48.616;12.872;2023-06-14T13:04:57;24.70;68.80
7684;DHT22;3884;48.616;12.872;2023-06-14T13:07:29;24.70;85.80
7684;DHT22;3884;48.616;12.872;2023-06-14T13:09:59;24.30;60.90
7684;DHT22;3884;48.616;12.872;2023-06-14T13:12:27;24.50;78.90
7684;DHT22;3884;48.616;12.872;2023-06-14T13:14:54;24.50;84.50
7684;DHT22;3884;48.616;12.872;2023-06-14T13:17:21;24.60;71.90
7684;DHT22;3884;48.616;12.872;2023-06-14T13:19:50;24.70;66.60
7684;DHT22;3884;48.616;12.872;2023-06-14T13:22:17;24.40;85.70
7684;DHT22;3884;48.616;12.872;2023-06-14T13:24:44;24.70;65.10
7684;DHT22;3884;48.616;12.872;2023-06-14T13:27:13;25.00;61.90
7684;DHT22;3884;48.616;12.872;2023-06-14T13:29:40;25.20;49.40
7684;DHT22;3884;48.616;12.872;2023-06-14T13:32:07;25.70;52.50
7684;DHT22;3884;48.616;12.872;2023-06-14T13:34:34;25.80;59.80
7684;DHT22;3884;48.616;12.872;2023-06-14T13:37:02;24.70;46.00
7684;DHT22;3884;48.616;12.872;2023-06-14T13:39:33;25.00;54.60
7684;DHT22;3884;48.616;12.872;2023-06-14T13:42:04;24.90;78.40
7684;DHT22;3884;48.616;12.872;2023-06-14T13:44:32;25.00;65.00
7684;DHT22;3884;48.616;12.872;2023-06-14T13:46:59;25.70;71.10
7684;DHT22;3884;48.616;12.872;2023-06-14T13:49:26;25.80;53.10
7684;DHT22;3884;48.616;12.872;2023-06-14T13:51:54;24.70;55.30
7684;DHT22;3884;48.616;12.872;2023-06-14T13:54:22;24.10;58.90
7684;DHT22;3884;48.616;12.872;2023-06-14T13:56:49;23.90;81.10
7684;DHT22;3884;48.616;12.872;2023-06-14T13:59:17;24.50;63.70
7684;DHT22;3884;48.616;12.872;2023-06-14T14:01:45;24.60;99.90
7684;DHT22;3884;48.616;12.872;2023-06-14T14:04:14;25.60;84.40
7684;DHT22;3884;48.616;12.872;2023-06-14T14:06:58;26.30;86.30
7684;DHT22;3884;48.616;12.872;2023-06-14T14:09:25;26.90;69.20
7684;DHT22;3884;48.616;12.872;2023-06-14T14:11:55;27.00;52.10
7684;DHT22;3884;48.616;12.872;2023-06-14T14:14:22;25.80;68.30
7684;DHT22;3884;48.616;12.872;2023-06-14T14:16:53;26.00;40.60
7684;DHT22;3884;48.616;12.872;2023-06-14T14:19:21;26.30;72.20
7684;DHT22;3884;48.616;12.872;2023-06-14T14:21:48;26.20;72.30
7684;DHT22;3884;48.616;12.872;2023-06-14T14:24:15;26.50;54.50
7684;DHT22;3884;48.616;12.872;2023-06-14T14:26:42;27.00;89.50
7684;DHT22;3884;48.616;12.872;2023-06-14T14:29:09;27.70;68.10
7684;DHT22;3884;48.616;12.872;2023-06-14T14:31:37;28.00;61.80
7684;DHT22;3884;48.616;12.872;2023-06-14T14:34:09;27.80;57.50
7684;DHT22;3884;48.616;12.872;2023-06-14T14:36:41;27.40;55.30
7684;DHT22;3884;48.616;12.872;2023-06-14T14:39:09;27.20;62.40
7684;DHT22;3884;48.616;12.872;2023-06-14T14:41:37;26.70;71.40
7684;DHT22;3884;48.616;12.872;2023-06-14T14:44:10;26.10;66.30
7684;DHT22;3884;48.616;12.872;2023-06-14T14:46:36;25.60;65.30
7684;DHT22;3884;48.616;12.872;2023-06-14T14:49:04;26.30;74.50
7684;DHT22;3884;48.616;12.872;2023-06-14T14:51:32;26.40;52.70
7684;DHT22;3884;48.616;12.872;2023-06-14T14:53:59;25.90;43.20
7684;DHT22;3884;48.616;12.872;2023-06-14T14:56:27;25.20;48.10
7684;DHT22;3884;48.616;12.872;2023-06-14T14:58:54;26.00;82.00
7684;DHT22;3884;48.616;12.872;2023-06-14T15:01:21;26.40;71.90
7684;DHT22;3884;48.616;12.872;2023-06-14T15:03:48;26.40;52.20
7684;DHT22;3884;48.616;12.872;2023-06-14T15:06:18;26.60;68.30
7684;DHT22;3884;48.616;12.872;2023-06-14T15:08:47;25.90;96.90
7684;DHT22;3884;48.616;12.872;2023-06-14T15:11:14;26.10;82.10
7684;DHT22;3884;48.616;12.872;2023-06-14T15:13:41;26.40;68.00
7684;DHT22;3884;48.616;12.872;2023-06-14T15:16:10;25.30;92.60
7684;DHT22;3884;48.616;12.872;2023-06-14T15:18:42;25.40;87.40
7684;DHT22;3884;48.616;12.872;2023-06-14T15:21:18;26.10;99.10
7684;DHT22;3884;48.616;12.872;2023-06-14T15:23:57;24.90;97.00
7684;DHT22;3884;48.616;12.872;2023-06-14T15:26:40;25.50;93.20
7684;DHT22;3884;48.616;12.872;2023-06-14T15:29:07;26.40;99.90
7684;DHT22;3884;48.616;12.872;2023-06-14T15:31:35;26.50;77.30
7684;DHT22;3884;48.616;12.872;2023-06-14T15:34:02;26.90;80.10
7684;DHT22;3884;48.616;12.872;2023-06-14T15:36:29;26.80;61.70
7684;DHT22;3884;48.616;12.872;2023-06-14T15:38:57;27.20;70.40
7684;DHT22;3884;48.616;12.872;2023-06-14T15:41:24;26.10;86.70
7684;DHT22;3884;48.616;12.872;2023-06-14T15:43:51;26.60;85.80
7684;DHT22;3884;48.616;12.872;2023-06-14T15:46:21;26.70;76.10
7684;DHT22;3884;48.616;12.872;2023-06-14T15:48:47;26.20;71.00
7684;DHT22;3884;48.616;12.872;2023-06-14T15:51:23;25.50;67.50
7684;DHT22;3884;48.616;12.872;2023-06-14T15:53:51;25.90;80.50
7684;DHT22;3884;48.616;12.872;2023-06-14T15:56:23;26.10;99.50
7684;DHT22;3884;48.616;12.872;2023-06-14T15:58:52;26.60;91.40
7684;DHT22;3884;48.616;12.872;2023-06-14T16:01:22;26.70;88.20
7684;DHT22;3884;48.616;12.872;2023-06-14T16:03:52;26.60;80.00
7684;DHT22;3884;48.616;12.872;2023-06-14T16:06:21;27.00;74.50
7684;DHT22;3884;48.616;12.872;2023-06-14T16:08:49;27.10;89.30
7684;DHT22;3884;48.616;12.872;2023-06-14T16:11:18;27.30;84.70
7684;DHT22;3884;48.616;12.872;2023-06-14T16:13:49;26.90;92.90
7684;DHT22;3884;48.616;12.872;2023-06-14T16:16:16;26.70;82.10